sensor_id;sensor_type;location;lat;lon;timestamp;temperature;humidity
48998;DHT22;34807;51.456;7.244;2023-05-03T00:02:14;10.10;84.70
48998;DHT22;34807;51.456;7.244;2023-05-03T00:04:40;10.10;84.70
48998;DHT22;34807;51.456;7.244;2023-05-03T00:07:06;10.10;84.70
48998;DHT22;34807;51.456;7.244;2023-05-03T00:09:33;10.10;84.80
48998;DHT22;34807;51.456;7.244;2023-05-03T00:12:00;10.00;84.80
48998;DHT22;34807;51.456;7.244;2023-05-03T00:14:26;10.00;84.80
48998;DHT22;34807;51.456;7.244;2023-05-03T00:16:51;10.00;84.90
48998;DHT22;34807;51.456;7.244;2023-05-03T00:19:17;10.00;84.80
48998;DHT22;34807;51.456;7.244;2023-05-03T00:21:44;10.00;84.80
48998;DHT22;34807;51.456;7.244;2023-05-03T00:24:10;10.00;84.90
48998;DHT22;34807;51.456;7.244;2023-05-03T00:26:35;9.90;84.80
48998;DHT22;34807;51.456;7.244;2023-05-03T00:29:01;9.90;84.90
48998;DHT22;34807;51.456;7.244;2023-05-03T00:31:26;9.90;84.90
48998;DHT22;34807;51.456;7.244;2023-05-03T00:33:52;9.90;84.90
48998;DHT22;34807;51.456;7.244;2023-05-03T00:36:18;9.90;84.90
48998;DHT22;34807;51.456;7.244;2023-05-03T00:38:43;9.80;84.90
48998;DHT22;34807;51.456;7.244;2023-05-03T00:41:09;9.80;84.90
48998;DHT22;34807;51.456;7.244;2023-05-03T00:43:34;9.80;84.90
48998;DHT22;34807;51.456;7.244;2023-05-03T00:46:02;9.80;84.90
48998;DHT22;34807;51.456;7.244;2023-05-03T00:48:28;9.80;85.00
48998;DHT22;34807;51.456;7.244;2023-05-03T00:50:55;9.70;85.00
48998;DHT22;34807;51.456;7.244;2023-05-03T00:53:21;9.70;84.90
48998;DHT22;34807;51.456;7.244;2023-05-03T00:55:47;9.70;84.90
48998;DHT22;34807;51.456;7.244;2023-05-03T00:58:12;9.70;85.00
48998;DHT22;34807;51.456;7.244;2023-05-03T01:00:38;9.60;84.90
48998;DHT22;34807;51.456;7.244;2023-05-03T01:03:04;9.60;84.90
48998;DHT22;34807;51.456;7.244;2023-05-03T01:05:32;9.60;84.90
48998;DHT22;34807;51.456;7.244;2023-05-03T01:08:02;9.60;85.00
48998;DHT22;34807;51.456;7.244;2023-05-03T01:10:40;9.50;84.90
48998;DHT22;34807;51.456;7.244;2023-05-03T01:13:16;9.50;84.90
48998;DHT22;34807;51.456;7.244;2023-05-03T01:15:53;9.50;85.00
48998;DHT22;34807;51.456;7.244;2023-05-03T01:18:24;9.50;85.00
48998;DHT22;34807;51.456;7.244;2023-05-03T01:20:52;9.50;85.00
48998;DHT22;34807;51.456;7.244;2023-05-03T01:25:52;9.40;85.10
48998;DHT22;34807;51.456;7.244;2023-05-03T01:28:18;9.40;85.00
48998;DHT22;34807;51.456;7.244;2023-05-03T01:30:44;9.40;85.10
48998;DHT22;34807;51.456;7.244;2023-05-03T01:35:39;9.40;85.10
48998;DHT22;34807;51.456;7.244;2023-05-03T01:38:08;9.30;84.90
48998;DHT22;34807;51.456;7.244;2023-05-03T01:40:47;9.30;85.10
48998;DHT22;34807;51.456;7.244;2023-05-03T01:43:15;9.30;85.10
48998;DHT22;34807;51.456;7.244;2023-05-03T01:45:40;9.30;85.10
48998;DHT22;34807;51.456;7.244;2023-05-03T01:48:10;9.30;85.10
48998;DHT22;34807;51.456;7.244;2023-05-03T01:50:36;9.30;85.10
48998;DHT22;34807;51.456;7.244;2023-05-03T01:53:01;9.30;85.10
48998;DHT22;34807;51.456;7.244;2023-05-03T01:55:27;9.20;85.20
48998;DHT22;34807;51.456;7.244;2023-05-03T01:57:52;9.20;85.10
48998;DHT22;34807;51.456;7.244;2023-05-03T02:00:18;9.20;85.20
48998;DHT22;34807;51.456;7.244;2023-05-03T02:02:43;9.20;85.80
48998;DHT22;34807;51.456;7.244;2023-05-03T02:05:09;9.20;85.20
48998;DHT22;34807;51.456;7.244;2023-05-03T02:07:35;9.20;85.20
48998;DHT22;34807;51.456;7.244;2023-05-03T02:10:01;9.10;85.20
48998;DHT22;34807;51.456;7.244;2023-05-03T02:12:26;9.10;85.10
48998;DHT22;34807;51.456;7.244;2023-05-03T02:14:52;9.10;85.20
48998;DHT22;34807;51.456;7.244;2023-05-03T02:17:17;9.10;85.20
48998;DHT22;34807;51.456;7.244;2023-05-03T02:19:43;9.00;85.10
48998;DHT22;34807;51.456;7.244;2023-05-03T02:22:08;9.00;85.20
48998;DHT22;34807;51.456;7.244;2023-05-03T02:24:34;9.00;85.20
48998;DHT22;34807;51.456;7.244;2023-05-03T02:27:01;9.00;85.20
48998;DHT22;34807;51.456;7.244;2023-05-03T02:29:29;9.00;85.20
48998;DHT22;34807;51.456;7.244;2023-05-03T02:31:55;9.00;85.20
48998;DHT22;34807;51.456;7.244;2023-05-03T02:34:20;9.00;85.30
48998;DHT22;34807;51.456;7.244;2023-05-03T02:36:46;9.00;85.30
48998;DHT22;34807;51.456;7.244;2023-05-03T02:39:11;8.90;85.30
48998;DHT22;34807;51.456;7.244;2023-05-03T02:41:37;8.90;85.30
48998;DHT22;34807;51.456;7.244;2023-05-03T02:44:02;8.90;85.40
48998;DHT22;34807;51.456;7.244;2023-05-03T02:46:28;8.90;85.20
48998;DHT22;34807;51.456;7.244;2023-05-03T02:48:53;8.80;85.90
48998;DHT22;34807;51.456;7.244;2023-05-03T02:51:19;8.90;85.30
48998;DHT22;34807;51.456;7.244;2023-05-03T02:53:45;8.80;85.30
48998;DHT22;34807;51.456;7.244;2023-05-03T02:56:10;8.80;85.30
48998;DHT22;34807;51.456;7.244;2023-05-03T02:58:36;8.80;85.30
48998;DHT22;34807;51.456;7.244;2023-05-03T03:01:01;8.80;85.30
48998;DHT22;34807;51.456;7.244;2023-05-03T03:03:27;8.80;85.30
48998;DHT22;34807;51.456;7.244;2023-05-03T03:05:52;8.70;85.40
48998;DHT22;34807;51.456;7.244;2023-05-03T03:08:18;8.70;85.30
48998;DHT22;34807;51.456;7.244;2023-05-03T03:10:43;8.70;85.30
48998;DHT22;34807;51.456;7.244;2023-05-03T03:13:09;8.70;85.30
48998;DHT22;34807;51.456;7.244;2023-05-03T03:15:34;8.70;85.30
48998;DHT22;34807;51.456;7.244;2023-05-03T03:18:00;8.70;85.30
48998;DHT22;34807;51.456;7.244;2023-05-03T03:20:25;8.70;85.30
48998;DHT22;34807;51.456;7.244;2023-05-03T03:22:51;8.70;85.40
48998;DHT22;34807;51.456;7.244;2023-05-03T03:25:16;8.70;85.40
48998;DHT22;34807;51.456;7.244;2023-05-03T03:27:42;8.60;85.30
48998;DHT22;34807;51.456;7.244;2023-05-03T03:30:07;8.60;85.40
48998;DHT22;34807;51.456;7.244;2023-05-03T03:32:33;8.60;85.40
48998;DHT22;34807;51.456;7.244;2023-05-03T03:34:59;8.60;85.40
48998;DHT22;34807;51.456;7.244;2023-05-03T03:37:25;8.60;85.40
48998;DHT22;34807;51.456;7.244;2023-05-03T03:39:51;8.50;85.40
48998;DHT22;34807;51.456;7.244;2023-05-03T03:42:16;8.50;85.40
48998;DHT22;34807;51.456;7.244;2023-05-03T03:44:42;8.50;85.30
48998;DHT22;34807;51.456;7.244;2023-05-03T03:47:07;8.50;85.30
48998;DHT22;34807;51.456;7.244;2023-05-03T03:49:33;8.50;85.30
48998;DHT22;34807;51.456;7.244;2023-05-03T03:51:58;8.50;85.30
48998;DHT22;34807;51.456;7.244;2023-05-03T03:54:24;8.40;85.30
48998;DHT22;34807;51.456;7.244;2023-05-03T03:56:49;8.40;85.40
48998;DHT22;34807;51.456;7.244;2023-05-03T03:59:16;8.40;85.30
48998;DHT22;34807;51.456;7.244;2023-05-03T04:01:42;8.40;85.30
48998;DHT22;34807;51.456;7.244;2023-05-03T04:04:07;8.40;85.30
48998;DHT22;34807;51.456;7.244;2023-05-03T04:06:33;8.40;85.30
48998;DHT22;34807;51.456;7.244;2023-05-03T04:08:58;8.40;85.30
48998;DHT22;34807;51.456;7.244;2023-05-03T04:11:24;8.40;85.30
48998;DHT22;34807;51.456;7.244;2023-05-03T04:13:49;8.30;85.20
48998;DHT22;34807;51.456;7.244;2023-05-03T04:16:15;8.40;85.30
48998;DHT22;34807;51.456;7.244;2023-05-03T04:18:41;8.30;85.30
48998;DHT22;34807;51.456;7.244;2023-05-03T04:21:07;8.30;85.30
48998;DHT22;34807;51.456;7.244;2023-05-03T04:23:32;8.30;85.30
48998;DHT22;34807;51.456;7.244;2023-05-03T04:25:58;8.30;85.30
48998;DHT22;34807;51.456;7.244;2023-05-03T04:28:23;8.30;85.30
48998;DHT22;34807;51.456;7.244;2023-05-03T04:30:51;8.30;85.30
48998;DHT22;34807;51.456;7.244;2023-05-03T04:33:18;8.30;85.30
48998;DHT22;34807;51.456;7.244;2023-05-03T04:35:43;8.30;85.30
48998;DHT22;34807;51.456;7.244;2023-05-03T04:38:09;8.30;85.40
48998;DHT22;34807;51.456;7.244;2023-05-03T04:40:34;8.30;85.30
48998;DHT22;34807;51.456;7.244;2023-05-03T04:43:00;8.30;85.30
48998;DHT22;34807;51.456;7.244;2023-05-03T04:45:25;8.20;85.30
48998;DHT22;34807;51.456;7.244;2023-05-03T04:47:51;8.20;85.30
48998;DHT22;34807;51.456;7.244;2023-05-03T04:50:17;8.20;85.30
48998;DHT22;34807;51.456;7.244;2023-05-03T04:52:43;8.20;85.30
48998;DHT22;34807;51.456;7.244;2023-05-03T04:55:09;8.20;85.30
48998;DHT22;34807;51.456;7.244;2023-05-03T04:57:34;8.20;85.40
48998;DHT22;34807;51.456;7.244;2023-05-03T05:00:00;8.20;85.40
48998;DHT22;34807;51.456;7.244;2023-05-03T05:02:25;8.20;85.40
48998;DHT22;34807;51.456;7.244;2023-05-03T05:04:52;8.20;86.10
48998;DHT22;34807;51.456;7.244;2023-05-03T05:07:17;8.20;85.40
48998;DHT22;34807;51.456;7.244;2023-05-03T05:09:43;8.20;85.40
48998;DHT22;34807;51.456;7.244;2023-05-03T05:12:09;8.20;85.40
48998;DHT22;34807;51.456;7.244;2023-05-03T05:14:34;8.20;85.40
48998;DHT22;34807;51.456;7.244;2023-05-03T05:17:00;8.20;85.40
48998;DHT22;34807;51.456;7.244;2023-05-03T05:19:25;8.20;85.40
48998;DHT22;34807;51.456;7.244;2023-05-03T05:21:51;8.20;85.40
48998;DHT22;34807;51.456;7.244;2023-05-03T05:24:17;8.20;85.40
48998;DHT22;34807;51.456;7.244;2023-05-03T05:26:43;8.20;85.50
48998;DHT22;34807;51.456;7.244;2023-05-03T05:29:08;8.20;85.50
48998;DHT22;34807;51.456;7.244;2023-05-03T05:31:34;8.20;85.50
48998;DHT22;34807;51.456;7.244;2023-05-03T05:34:01;8.20;85.60
48998;DHT22;34807;51.456;7.244;2023-05-03T05:36:26;8.20;85.60
48998;DHT22;34807;51.456;7.244;2023-05-03T05:38:52;8.20;85.70
48998;DHT22;34807;51.456;7.244;2023-05-03T05:41:17;8.20;85.70
48998;DHT22;34807;51.456;7.244;2023-05-03T05:43:43;8.20;85.70
48998;DHT22;34807;51.456;7.244;2023-05-03T05:46:09;8.20;85.70
48998;DHT22;34807;51.456;7.244;2023-05-03T05:48:34;8.20;85.70
48998;DHT22;34807;51.456;7.244;2023-05-03T05:51:00;8.20;85.70
48998;DHT22;34807;51.456;7.244;2023-05-03T05:53:25;8.20;85.70
48998;DHT22;34807;51.456;7.244;2023-05-03T05:55:51;8.20;85.60
48998;DHT22;34807;51.456;7.244;2023-05-03T05:58:16;8.30;85.70
48998;DHT22;34807;51.456;7.244;2023-05-03T06:00:42;8.30;85.70
48998;DHT22;34807;51.456;7.244;2023-05-03T06:03:08;8.30;85.70
48998;DHT22;34807;51.456;7.244;2023-05-03T06:05:33;8.30;85.70
48998;DHT22;34807;51.456;7.244;2023-05-03T06:07:59;8.30;85.70
48998;DHT22;34807;51.456;7.244;2023-05-03T06:10:24;8.30;85.60
48998;DHT22;34807;51.456;7.244;2023-05-03T06:12:50;8.30;85.60
48998;DHT22;34807;51.456;7.244;2023-05-03T06:15:16;8.40;85.60
48998;DHT22;34807;51.456;7.244;2023-05-03T06:17:41;8.40;85.70
48998;DHT22;34807;51.456;7.244;2023-05-03T06:20:07;8.40;85.60
48998;DHT22;34807;51.456;7.244;2023-05-03T06:22:36;8.40;85.60
48998;DHT22;34807;51.456;7.244;2023-05-03T06:25:01;8.50;85.70
48998;DHT22;34807;51.456;7.244;2023-05-03T06:27:27;8.50;85.70
48998;DHT22;34807;51.456;7.244;2023-05-03T06:29:53;8.50;85.50
48998;DHT22;34807;51.456;7.244;2023-05-03T06:32:18;8.50;85.50
48998;DHT22;34807;51.456;7.244;2023-05-03T06:34:46;8.50;85.50
48998;DHT22;34807;51.456;7.244;2023-05-03T06:37:12;8.50;85.50
48998;DHT22;34807;51.456;7.244;2023-05-03T06:39:38;8.60;85.50
48998;DHT22;34807;51.456;7.244;2023-05-03T06:42:03;8.60;85.50
48998;DHT22;34807;51.456;7.244;2023-05-03T06:44:29;8.60;85.50
48998;DHT22;34807;51.456;7.244;2023-05-03T06:46:55;8.60;85.40
48998;DHT22;34807;51.456;7.244;2023-05-03T06:49:20;8.60;85.50
48998;DHT22;34807;51.456;7.244;2023-05-03T06:51:46;8.70;85.50
48998;DHT22;34807;51.456;7.244;2023-05-03T06:54:11;8.70;85.50
48998;DHT22;34807;51.456;7.244;2023-05-03T06:56:37;8.70;85.50
48998;DHT22;34807;51.456;7.244;2023-05-03T06:59:03;8.80;85.40
48998;DHT22;34807;51.456;7.244;2023-05-03T07:01:29;8.70;85.40
48998;DHT22;34807;51.456;7.244;2023-05-03T07:03:55;8.70;85.40
48998;DHT22;34807;51.456;7.244;2023-05-03T07:06:20;8.70;85.60
48998;DHT22;34807;51.456;7.244;2023-05-03T07:08:50;8.80;85.50
48998;DHT22;34807;51.456;7.244;2023-05-03T07:11:17;8.70;85.60
48998;DHT22;34807;51.456;7.244;2023-05-03T07:13:43;8.70;85.60
48998;DHT22;34807;51.456;7.244;2023-05-03T07:16:08;8.70;85.70
48998;DHT22;34807;51.456;7.244;2023-05-03T07:18:33;8.80;85.90
48998;DHT22;34807;51.456;7.244;2023-05-03T07:20:59;8.80;85.90
48998;DHT22;34807;51.456;7.244;2023-05-03T07:23:30;8.80;85.80
48998;DHT22;34807;51.456;7.244;2023-05-03T07:25:55;8.80;85.80
48998;DHT22;34807;51.456;7.244;2023-05-03T07:28:21;8.80;85.90
48998;DHT22;34807;51.456;7.244;2023-05-03T07:30:47;8.80;85.80
48998;DHT22;34807;51.456;7.244;2023-05-03T07:33:12;8.80;85.80
48998;DHT22;34807;51.456;7.244;2023-05-03T07:35:38;8.80;85.90
48998;DHT22;34807;51.456;7.244;2023-05-03T07:38:03;8.90;85.80
48998;DHT22;34807;51.456;7.244;2023-05-03T07:40:29;8.90;85.80
48998;DHT22;34807;51.456;7.244;2023-05-03T07:43:00;8.90;85.80
48998;DHT22;34807;51.456;7.244;2023-05-03T07:45:25;8.90;85.80
48998;DHT22;34807;51.456;7.244;2023-05-03T07:47:51;8.90;85.80
48998;DHT22;34807;51.456;7.244;2023-05-03T07:50:17;8.90;85.80
48998;DHT22;34807;51.456;7.244;2023-05-03T07:52:42;8.90;85.90
48998;DHT22;34807;51.456;7.244;2023-05-03T07:55:08;9.00;85.90
48998;DHT22;34807;51.456;7.244;2023-05-03T07:57:34;9.00;85.90
48998;DHT22;34807;51.456;7.244;2023-05-03T08:00:00;9.00;85.90
48998;DHT22;34807;51.456;7.244;2023-05-03T08:02:26;9.10;85.90
48998;DHT22;34807;51.456;7.244;2023-05-03T08:04:51;9.10;85.70
48998;DHT22;34807;51.456;7.244;2023-05-03T08:07:19;9.10;85.80
48998;DHT22;34807;51.456;7.244;2023-05-03T08:09:44;9.10;85.70
48998;DHT22;34807;51.456;7.244;2023-05-03T08:12:10;9.20;85.70
48998;DHT22;34807;51.456;7.244;2023-05-03T08:14:35;9.20;85.70
48998;DHT22;34807;51.456;7.244;2023-05-03T08:17:01;9.20;85.70
48998;DHT22;34807;51.456;7.244;2023-05-03T08:19:29;9.30;85.60
48998;DHT22;34807;51.456;7.244;2023-05-03T08:21:54;9.30;85.70
48998;DHT22;34807;51.456;7.244;2023-05-03T08:24:20;9.30;85.50
48998;DHT22;34807;51.456;7.244;2023-05-03T08:26:46;9.30;85.60
48998;DHT22;34807;51.456;7.244;2023-05-03T08:29:13;9.40;85.60
48998;DHT22;34807;51.456;7.244;2023-05-03T08:31:38;9.40;85.60
48998;DHT22;34807;51.456;7.244;2023-05-03T08:34:04;9.40;85.50
48998;DHT22;34807;51.456;7.244;2023-05-03T08:36:31;9.40;85.50
48998;DHT22;34807;51.456;7.244;2023-05-03T08:38:57;9.50;85.50
48998;DHT22;34807;51.456;7.244;2023-05-03T08:41:26;9.50;85.40
48998;DHT22;34807;51.456;7.244;2023-05-03T08:43:53;9.50;85.30
48998;DHT22;34807;51.456;7.244;2023-05-03T08:46:19;9.60;85.20
48998;DHT22;34807;51.456;7.244;2023-05-03T08:48:48;9.60;85.20
48998;DHT22;34807;51.456;7.244;2023-05-03T08:51:15;9.60;85.20
48998;DHT22;34807;51.456;7.244;2023-05-03T08:53:40;9.70;85.20
48998;DHT22;34807;51.456;7.244;2023-05-03T08:56:06;9.70;85.00
48998;DHT22;34807;51.456;7.244;2023-05-03T08:58:35;9.80;85.00
48998;DHT22;34807;51.456;7.244;2023-05-03T09:01:05;9.80;84.90
48998;DHT22;34807;51.456;7.244;2023-05-03T09:03:31;9.80;84.90
48998;DHT22;34807;51.456;7.244;2023-05-03T09:05:57;9.90;84.80
48998;DHT22;34807;51.456;7.244;2023-05-03T09:08:26;9.90;84.60
48998;DHT22;34807;51.456;7.244;2023-05-03T09:10:52;10.00;84.50
48998;DHT22;34807;51.456;7.244;2023-05-03T09:13:18;10.00;84.40
48998;DHT22;34807;51.456;7.244;2023-05-03T09:15:44;10.10;84.40
48998;DHT22;34807;51.456;7.244;2023-05-03T09:18:19;10.10;84.30
48998;DHT22;34807;51.456;7.244;2023-05-03T09:20:46;10.20;84.10
48998;DHT22;34807;51.456;7.244;2023-05-03T09:25:53;10.20;84.10
48998;DHT22;34807;51.456;7.244;2023-05-03T09:28:19;10.30;84.10
48998;DHT22;34807;51.456;7.244;2023-05-03T09:30:44;10.30;84.00
48998;DHT22;34807;51.456;7.244;2023-05-03T09:33:11;10.30;83.90
48998;DHT22;34807;51.456;7.244;2023-05-03T09:35:44;10.40;84.00
48998;DHT22;34807;51.456;7.244;2023-05-03T09:38:24;10.40;83.90
48998;DHT22;34807;51.456;7.244;2023-05-03T09:40:50;10.50;84.40
48998;DHT22;34807;51.456;7.244;2023-05-03T09:43:15;10.50;84.00
48998;DHT22;34807;51.456;7.244;2023-05-03T09:45:41;10.50;83.90
48998;DHT22;34807;51.456;7.244;2023-05-03T09:48:07;10.50;83.80
48998;DHT22;34807;51.456;7.244;2023-05-03T09:50:33;10.60;83.70
48998;DHT22;34807;51.456;7.244;2023-05-03T09:53:02;10.60;83.70
48998;DHT22;34807;51.456;7.244;2023-05-03T09:55:35;10.70;83.50
48998;DHT22;34807;51.456;7.244;2023-05-03T09:58:00;10.70;83.40
48998;DHT22;34807;51.456;7.244;2023-05-03T10:00:33;10.80;83.30
48998;DHT22;34807;51.456;7.244;2023-05-03T10:03:00;10.90;83.30
48998;DHT22;34807;51.456;7.244;2023-05-03T10:05:27;10.90;83.20
48998;DHT22;34807;51.456;7.244;2023-05-03T10:07:55;10.90;83.20
48998;DHT22;34807;51.456;7.244;2023-05-03T10:10:22;11.00;82.90
48998;DHT22;34807;51.456;7.244;2023-05-03T10:12:47;11.00;83.10
48998;DHT22;34807;51.456;7.244;2023-05-03T10:15:14;11.10;83.30
48998;DHT22;34807;51.456;7.244;2023-05-03T10:17:40;11.20;83.00
48998;DHT22;34807;51.456;7.244;2023-05-03T10:20:26;11.20;83.10
48998;DHT22;34807;51.456;7.244;2023-05-03T10:25:37;11.30;83.40
48998;DHT22;34807;51.456;7.244;2023-05-03T10:28:03;11.50;83.50
48998;DHT22;34807;51.456;7.244;2023-05-03T10:30:31;11.50;83.30
48998;DHT22;34807;51.456;7.244;2023-05-03T10:35:41;11.70;83.60
48998;DHT22;34807;51.456;7.244;2023-05-03T10:38:16;11.80;83.60
48998;DHT22;34807;51.456;7.244;2023-05-03T10:40:44;11.90;82.80
48998;DHT22;34807;51.456;7.244;2023-05-03T10:45:57;12.10;83.70
48998;DHT22;34807;51.456;7.244;2023-05-03T10:48:23;12.20;82.90
48998;DHT22;34807;51.456;7.244;2023-05-03T10:50:49;12.30;83.80
48998;DHT22;34807;51.456;7.244;2023-05-03T10:56:00;12.50;84.00
48998;DHT22;34807;51.456;7.244;2023-05-03T10:58:28;12.60;83.80
48998;DHT22;34807;51.456;7.244;2023-05-03T11:00:54;12.70;83.60
48998;DHT22;34807;51.456;7.244;2023-05-03T11:05:46;13.00;83.90
48998;DHT22;34807;51.456;7.244;2023-05-03T11:10:44;13.10;83.90
48998;DHT22;34807;51.456;7.244;2023-05-03T11:13:10;13.30;83.90
48998;DHT22;34807;51.456;7.244;2023-05-03T11:15:36;13.40;83.90
48998;DHT22;34807;51.456;7.244;2023-05-03T11:18:02;13.50;83.70
48998;DHT22;34807;51.456;7.244;2023-05-03T11:20:28;13.60;83.70
48998;DHT22;34807;51.456;7.244;2023-05-03T11:22:54;13.70;83.60
48998;DHT22;34807;51.456;7.244;2023-05-03T11:25:20;13.70;83.60
48998;DHT22;34807;51.456;7.244;2023-05-03T11:27:45;13.80;83.50
48998;DHT22;34807;51.456;7.244;2023-05-03T11:30:11;13.90;83.50
48998;DHT22;34807;51.456;7.244;2023-05-03T11:32:37;14.00;83.60
48998;DHT22;34807;51.456;7.244;2023-05-03T11:35:04;14.10;83.50
48998;DHT22;34807;51.456;7.244;2023-05-03T11:37:30;14.20;83.60
48998;DHT22;34807;51.456;7.244;2023-05-03T11:39:56;14.30;83.70
48998;DHT22;34807;51.456;7.244;2023-05-03T11:42:22;14.40;83.70
48998;DHT22;34807;51.456;7.244;2023-05-03T11:44:51;14.40;83.80
48998;DHT22;34807;51.456;7.244;2023-05-03T11:47:16;14.50;83.80
48998;DHT22;34807;51.456;7.244;2023-05-03T11:49:51;14.60;83.80
48998;DHT22;34807;51.456;7.244;2023-05-03T11:52:24;14.60;83.30
48998;DHT22;34807;51.456;7.244;2023-05-03T11:54:49;14.70;84.10
48998;DHT22;34807;51.456;7.244;2023-05-03T11:57:15;14.80;84.10
48998;DHT22;34807;51.456;7.244;2023-05-03T11:59:41;14.90;84.10
48998;DHT22;34807;51.456;7.244;2023-05-03T12:02:08;14.90;84.20
48998;DHT22;34807;51.456;7.244;2023-05-03T12:04:35;15.00;84.40
48998;DHT22;34807;51.456;7.244;2023-05-03T12:07:01;15.10;84.50
48998;DHT22;34807;51.456;7.244;2023-05-03T12:09:27;15.10;85.30
48998;DHT22;34807;51.456;7.244;2023-05-03T12:11:53;15.20;84.70
48998;DHT22;34807;51.456;7.244;2023-05-03T12:14:18;15.20;84.90
48998;DHT22;34807;51.456;7.244;2023-05-03T12:16:45;15.30;85.00
48998;DHT22;34807;51.456;7.244;2023-05-03T12:19:11;15.40;85.00
48998;DHT22;34807;51.456;7.244;2023-05-03T12:21:43;15.40;85.00
48998;DHT22;34807;51.456;7.244;2023-05-03T12:24:09;15.50;85.20
48998;DHT22;34807;51.456;7.244;2023-05-03T12:26:34;15.60;85.50
48998;DHT22;34807;51.456;7.244;2023-05-03T12:29:00;15.60;85.20
48998;DHT22;34807;51.456;7.244;2023-05-03T12:31:26;15.60;85.20
48998;DHT22;34807;51.456;7.244;2023-05-03T12:33:51;15.70;85.30
48998;DHT22;34807;51.456;7.244;2023-05-03T12:36:17;15.70;85.30
48998;DHT22;34807;51.456;7.244;2023-05-03T12:38:43;15.80;85.40
48998;DHT22;34807;51.456;7.244;2023-05-03T12:41:09;15.80;85.30
48998;DHT22;34807;51.456;7.244;2023-05-03T12:43:35;15.90;85.30
48998;DHT22;34807;51.456;7.244;2023-05-03T12:46:01;16.00;85.40
48998;DHT22;34807;51.456;7.244;2023-05-03T12:48:27;16.00;85.30
48998;DHT22;34807;51.456;7.244;2023-05-03T12:50:52;16.10;85.40
48998;DHT22;34807;51.456;7.244;2023-05-03T12:53:19;16.10;85.30
48998;DHT22;34807;51.456;7.244;2023-05-03T12:55:45;16.10;85.00
48998;DHT22;34807;51.456;7.244;2023-05-03T12:58:11;16.20;85.30
48998;DHT22;34807;51.456;7.244;2023-05-03T13:00:36;16.30;85.20
48998;DHT22;34807;51.456;7.244;2023-05-03T13:03:02;16.30;85.20
48998;DHT22;34807;51.456;7.244;2023-05-03T13:05:28;16.40;83.90
48998;DHT22;34807;51.456;7.244;2023-05-03T13:07:53;16.50;84.10
48998;DHT22;34807;51.456;7.244;2023-05-03T13:10:19;16.50;84.10
48998;DHT22;34807;51.456;7.244;2023-05-03T13:12:44;16.60;85.00
48998;DHT22;34807;51.456;7.244;2023-05-03T13:15:10;16.60;85.00
48998;DHT22;34807;51.456;7.244;2023-05-03T13:17:36;16.70;85.30
48998;DHT22;34807;51.456;7.244;2023-05-03T13:20:01;16.70;85.20
48998;DHT22;34807;51.456;7.244;2023-05-03T13:22:32;16.80;84.00
48998;DHT22;34807;51.456;7.244;2023-05-03T13:24:57;16.80;85.10
48998;DHT22;34807;51.456;7.244;2023-05-03T13:27:23;16.90;85.10
48998;DHT22;34807;51.456;7.244;2023-05-03T13:29:49;16.90;83.60
48998;DHT22;34807;51.456;7.244;2023-05-03T13:32:16;17.00;85.00
48998;DHT22;34807;51.456;7.244;2023-05-03T13:34:41;17.00;84.90
48998;DHT22;34807;51.456;7.244;2023-05-03T13:37:07;17.10;84.80
48998;DHT22;34807;51.456;7.244;2023-05-03T13:39:32;17.10;85.10
48998;DHT22;34807;51.456;7.244;2023-05-03T13:41:58;17.20;85.00
48998;DHT22;34807;51.456;7.244;2023-05-03T13:44:23;17.20;85.10
48998;DHT22;34807;51.456;7.244;2023-05-03T13:46:50;17.20;84.90
48998;DHT22;34807;51.456;7.244;2023-05-03T13:49:16;17.30;84.00
48998;DHT22;34807;51.456;7.244;2023-05-03T13:51:42;17.30;83.70
48998;DHT22;34807;51.456;7.244;2023-05-03T13:54:07;17.40;83.90
48998;DHT22;34807;51.456;7.244;2023-05-03T13:56:33;17.40;82.10
48998;DHT22;34807;51.456;7.244;2023-05-03T13:58:59;17.50;83.10
48998;DHT22;34807;51.456;7.244;2023-05-03T14:01:25;17.50;83.10
48998;DHT22;34807;51.456;7.244;2023-05-03T14:03:51;17.60;84.70
48998;DHT22;34807;51.456;7.244;2023-05-03T14:06:18;17.60;83.70
48998;DHT22;34807;51.456;7.244;2023-05-03T14:08:44;17.70;82.70
48998;DHT22;34807;51.456;7.244;2023-05-03T14:11:13;17.70;83.50
48998;DHT22;34807;51.456;7.244;2023-05-03T14:13:39;17.80;82.80
48998;DHT22;34807;51.456;7.244;2023-05-03T14:16:05;17.80;82.80
48998;DHT22;34807;51.456;7.244;2023-05-03T14:18:31;17.90;82.40
48998;DHT22;34807;51.456;7.244;2023-05-03T14:20:57;17.90;82.20
48998;DHT22;34807;51.456;7.244;2023-05-03T14:23:24;18.00;81.80
48998;DHT22;34807;51.456;7.244;2023-05-03T14:25:49;18.10;81.40
48998;DHT22;34807;51.456;7.244;2023-05-03T14:28:15;18.10;80.40
48998;DHT22;34807;51.456;7.244;2023-05-03T14:30:41;18.10;80.20
48998;DHT22;34807;51.456;7.244;2023-05-03T14:33:06;18.30;76.60
48998;DHT22;34807;51.456;7.244;2023-05-03T14:35:34;18.30;76.90
48998;DHT22;34807;51.456;7.244;2023-05-03T14:37:59;18.50;75.60
48998;DHT22;34807;51.456;7.244;2023-05-03T14:40:25;18.60;75.00
48998;DHT22;34807;51.456;7.244;2023-05-03T14:42:50;18.70;74.70
48998;DHT22;34807;51.456;7.244;2023-05-03T14:45:16;18.80;74.00
48998;DHT22;34807;51.456;7.244;2023-05-03T14:47:41;19.00;74.30
48998;DHT22;34807;51.456;7.244;2023-05-03T14:50:07;19.10;72.80
48998;DHT22;34807;51.456;7.244;2023-05-03T14:52:33;19.30;72.50
48998;DHT22;34807;51.456;7.244;2023-05-03T14:54:59;19.40;71.50
48998;DHT22;34807;51.456;7.244;2023-05-03T14:57:25;19.50;71.50
48998;DHT22;34807;51.456;7.244;2023-05-03T14:59:51;19.60;71.30
48998;DHT22;34807;51.456;7.244;2023-05-03T15:02:17;19.80;70.40
48998;DHT22;34807;51.456;7.244;2023-05-03T15:04:43;20.00;70.10
48998;DHT22;34807;51.456;7.244;2023-05-03T15:07:09;20.20;70.30
48998;DHT22;34807;51.456;7.244;2023-05-03T15:09:35;20.40;69.20
48998;DHT22;34807;51.456;7.244;2023-05-03T15:12:02;20.60;68.90
48998;DHT22;34807;51.456;7.244;2023-05-03T15:14:28;20.70;68.70
48998;DHT22;34807;51.456;7.244;2023-05-03T15:16:54;20.90;68.60
48998;DHT22;34807;51.456;7.244;2023-05-03T15:19:19;21.10;68.00
48998;DHT22;34807;51.456;7.244;2023-05-03T15:21:46;21.30;67.70
48998;DHT22;34807;51.456;7.244;2023-05-03T15:24:12;21.60;67.00
48998;DHT22;34807;51.456;7.244;2023-05-03T15:26:37;21.80;66.40
48998;DHT22;34807;51.456;7.244;2023-05-03T15:29:03;21.90;65.70
48998;DHT22;34807;51.456;7.244;2023-05-03T15:31:28;22.10;65.10
48998;DHT22;34807;51.456;7.244;2023-05-03T15:33:54;22.20;65.00
48998;DHT22;34807;51.456;7.244;2023-05-03T15:36:19;22.30;65.10
48998;DHT22;34807;51.456;7.244;2023-05-03T15:38:45;22.40;64.60
48998;DHT22;34807;51.456;7.244;2023-05-03T15:41:11;22.60;64.40
48998;DHT22;34807;51.456;7.244;2023-05-03T15:43:37;22.70;64.00
48998;DHT22;34807;51.456;7.244;2023-05-03T15:46:02;22.90;64.00
48998;DHT22;34807;51.456;7.244;2023-05-03T15:48:28;23.00;63.80
48998;DHT22;34807;51.456;7.244;2023-05-03T15:50:54;23.10;63.90
48998;DHT22;34807;51.456;7.244;2023-05-03T15:53:19;23.20;63.90
48998;DHT22;34807;51.456;7.244;2023-05-03T15:55:45;23.30;64.40
48998;DHT22;34807;51.456;7.244;2023-05-03T15:58:11;23.50;63.40